createdAt,value
2023-04-11T00:00:56.780Z,10.10
2023-04-11T00:03:25.461Z,10.10
2023-04-11T00:05:53.749Z,10.10
2023-04-11T00:08:21.912Z,10.10
2023-04-11T00:10:51.480Z,10.10
2023-04-11T00:13:20.796Z,10.10
2023-04-11T00:15:48.844Z,10.10
2023-04-11T00:18:18.344Z,10.10
2023-04-11T00:20:46.464Z,10.10
2023-04-11T00:23:14.554Z,10.10
2023-04-11T00:25:42.778Z,10.10
2023-04-11T00:28:12.244Z,10.10
2023-04-11T00:30:40.396Z,10.10
2023-04-11T00:33:08.448Z,10.10
2023-04-11T00:35:39.075Z,10.10
2023-04-11T00:38:07.258Z,10.10
2023-04-11T00:40:40.874Z,10.10
2023-04-11T00:43:09.048Z,10.10
2023-04-11T00:45:38.727Z,10.00
2023-04-11T00:48:07.300Z,10.00
2023-04-11T00:50:36.720Z,10.00
2023-04-11T00:53:04.847Z,10.00
2023-04-11T00:55:33.049Z,9.90
2023-04-11T00:58:04.106Z,9.80
2023-04-11T01:00:35.872Z,9.10
2023-04-11T01:03:05.768Z,8.40
2023-04-11T01:05:34.425Z,8.00
2023-04-11T01:08:03.476Z,7.70
2023-04-11T01:10:33.027Z,7.60
2023-04-11T01:13:01.679Z,7.40
2023-04-11T01:15:29.870Z,7.30
2023-04-11T01:18:02.154Z,7.30
2023-04-11T01:20:33.749Z,7.30
2023-04-11T01:23:02.783Z,7.20
2023-04-11T01:25:32.177Z,7.20
2023-04-11T01:28:00.226Z,7.10
2023-04-11T01:30:29.944Z,7.10
2023-04-11T01:32:58.325Z,7.00
2023-04-11T01:35:26.369Z,7.00
2023-04-11T01:37:54.431Z,6.90
2023-04-11T01:40:23.972Z,6.90
2023-04-11T01:42:53.838Z,6.90
2023-04-11T01:45:22.216Z,6.90
2023-04-11T01:47:51.653Z,6.90
2023-04-11T01:50:19.773Z,6.80
2023-04-11T01:52:47.820Z,6.90
2023-04-11T01:55:15.943Z,6.90
2023-04-11T01:57:44.213Z,6.80
2023-04-11T02:00:14.656Z,6.80
2023-04-11T02:02:43.108Z,6.80
2023-04-11T02:05:11.635Z,6.80
2023-04-11T02:07:39.751Z,6.70
2023-04-11T02:10:08.504Z,6.70
2023-04-11T02:12:36.600Z,6.60
2023-04-11T02:15:06.120Z,6.60
2023-04-11T02:17:36.915Z,6.60
2023-04-11T02:20:07.072Z,6.60
2023-04-11T02:22:38.196Z,6.60
2023-04-11T02:25:07.202Z,6.60
2023-04-11T02:27:35.789Z,6.50
2023-04-11T02:30:06.217Z,6.50
2023-04-11T02:32:36.220Z,6.40
2023-04-11T02:35:05.115Z,6.40
2023-04-11T02:37:33.286Z,6.30
2023-04-11T02:40:01.472Z,6.30
2023-04-11T02:42:30.774Z,6.20
2023-04-11T02:45:00.552Z,6.20
2023-04-11T02:47:28.775Z,6.20
2023-04-11T02:49:58.509Z,6.20
2023-04-11T02:52:28.122Z,6.10
2023-04-11T02:54:56.232Z,6.10
2023-04-11T02:57:24.258Z,6.00
2023-04-11T02:59:52.277Z,6.00
2023-04-11T03:02:21.109Z,6.00
2023-04-11T03:04:49.316Z,6.00
2023-04-11T03:07:18.769Z,6.00
2023-04-11T03:09:46.874Z,6.00
2023-04-11T03:12:14.901Z,5.90
2023-04-11T03:14:42.996Z,5.90
2023-04-11T03:17:11.101Z,5.90
2023-04-11T03:19:41.119Z,5.90
2023-04-11T03:22:15.172Z,6.00
2023-04-11T03:24:44.555Z,5.90
2023-04-11T03:27:12.617Z,6.00
2023-04-11T03:29:40.775Z,6.00
2023-04-11T03:32:08.935Z,6.00
2023-04-11T03:34:37.000Z,6.10
2023-04-11T03:37:05.292Z,6.10
2023-04-11T03:39:33.434Z,6.10
2023-04-11T03:42:05.251Z,6.10
2023-04-11T03:44:33.317Z,6.10
2023-04-11T03:47:01.440Z,6.10
2023-04-11T03:49:29.668Z,6.10
2023-04-11T03:51:57.674Z,6.10
2023-04-11T03:54:26.103Z,6.20
2023-04-11T03:56:54.199Z,6.20
2023-04-11T03:59:23.919Z,6.20
2023-04-11T04:01:51.994Z,6.20
2023-04-11T04:04:20.178Z,6.20
2023-04-11T04:06:48.215Z,6.30
2023-04-11T04:09:16.430Z,6.30
2023-04-11T04:11:47.657Z,6.30
2023-04-11T04:14:15.854Z,6.40
2023-04-11T04:16:45.490Z,6.40
2023-04-11T04:19:13.489Z,6.40
2023-04-11T04:21:43.252Z,6.40
2023-04-11T04:24:12.295Z,6.50
2023-04-11T04:26:40.513Z,6.50
2023-04-11T04:29:10.062Z,6.50
2023-04-11T04:31:41.609Z,6.50
2023-04-11T04:34:11.086Z,6.50
2023-04-11T04:36:46.456Z,6.50
2023-04-11T04:39:18.017Z,6.50
2023-04-11T04:41:48.564Z,6.50
2023-04-11T04:44:17.360Z,6.50
2023-04-11T04:46:45.566Z,6.50
2023-04-11T04:49:15.018Z,6.50
2023-04-11T04:51:43.254Z,6.60
2023-04-11T04:54:11.282Z,6.60
2023-04-11T04:56:39.626Z,6.60
2023-04-11T04:59:08.050Z,6.50
2023-04-11T05:01:40.023Z,6.50
2023-04-11T05:04:08.410Z,6.50
2023-04-11T05:06:38.136Z,6.40
2023-04-11T05:09:06.660Z,6.40
2023-04-11T05:11:34.860Z,6.40
2023-04-11T05:14:03.004Z,6.40
2023-04-11T05:16:31.763Z,6.40
2023-04-11T05:18:59.813Z,6.40
2023-04-11T05:21:28.508Z,6.40
2023-04-11T05:23:58.144Z,6.40
2023-04-11T05:26:26.329Z,6.40
2023-04-11T05:28:54.472Z,6.40
2023-04-11T05:31:22.559Z,6.40
2023-04-11T05:33:50.722Z,6.50
2023-04-11T05:36:18.778Z,6.50
2023-04-11T05:38:47.077Z,6.50
2023-04-11T05:41:16.717Z,6.60
2023-04-11T05:43:44.885Z,6.60
2023-04-11T05:46:13.433Z,6.60
2023-04-11T05:48:41.525Z,6.60
2023-04-11T05:51:09.792Z,6.70
2023-04-11T05:53:37.829Z,6.70
2023-04-11T05:56:06.179Z,6.70
2023-04-11T05:58:38.342Z,6.80
2023-04-11T06:01:08.390Z,6.80
2023-04-11T06:03:39.543Z,6.80
2023-04-11T06:06:10.598Z,6.80
2023-04-11T06:08:38.696Z,6.90
2023-04-11T06:11:06.837Z,6.90
2023-04-11T06:13:34.875Z,6.90
2023-04-11T06:16:04.453Z,7.00
2023-04-11T06:18:32.558Z,7.00
2023-04-11T06:21:00.636Z,7.10
2023-04-11T06:23:28.707Z,7.10
2023-04-11T06:25:56.895Z,7.20
2023-04-11T06:28:25.125Z,7.20
2023-04-11T06:30:53.273Z,7.30
2023-04-11T06:33:22.708Z,7.30
2023-04-11T06:35:50.998Z,7.40
2023-04-11T06:38:19.159Z,7.50
2023-04-11T06:40:47.191Z,7.50
2023-04-11T06:43:15.241Z,7.70
2023-04-11T06:45:43.288Z,7.70
2023-04-11T06:48:12.530Z,7.80
2023-04-11T06:50:45.702Z,7.80
2023-04-11T06:53:13.741Z,7.80
2023-04-11T06:55:41.951Z,7.80
2023-04-11T06:58:10.123Z,7.80
2023-04-11T07:00:38.206Z,7.80
2023-04-11T07:03:08.433Z,7.90
2023-04-11T07:05:39.358Z,7.90
2023-04-11T07:08:09.134Z,7.90
2023-04-11T07:10:37.135Z,8.00
2023-04-11T07:13:05.177Z,8.00
2023-04-11T07:15:33.468Z,8.00
2023-04-11T07:18:01.538Z,8.00
2023-04-11T07:20:31.094Z,8.00
2023-04-11T07:22:59.174Z,8.10
2023-04-11T07:25:31.022Z,8.00
2023-04-11T07:28:00.225Z,8.00
2023-04-11T07:30:28.697Z,8.00
2023-04-11T07:32:59.767Z,8.00
2023-04-11T07:35:28.531Z,8.00
2023-04-11T07:37:57.591Z,8.00
2023-04-11T07:40:25.998Z,8.10
2023-04-11T07:42:55.530Z,8.10
2023-04-11T07:45:23.814Z,8.10
2023-04-11T07:47:52.460Z,8.20
2023-04-11T07:50:20.653Z,8.20
2023-04-11T07:52:48.861Z,8.20
2023-04-11T07:55:16.961Z,8.30
2023-04-11T07:57:45.047Z,8.20
2023-04-11T08:00:22.247Z,8.20
2023-04-11T08:02:50.976Z,8.20
2023-04-11T08:05:20.958Z,8.10
2023-04-11T08:07:49.138Z,7.90
2023-04-11T08:10:17.345Z,7.90
2023-04-11T08:12:45.493Z,7.90
2023-04-11T08:15:13.806Z,7.90
2023-04-11T08:17:43.880Z,7.90
2023-04-11T08:20:13.963Z,7.80
2023-04-11T08:22:46.737Z,7.50
2023-04-11T08:25:15.644Z,7.40
2023-04-11T08:27:43.917Z,7.20
2023-04-11T08:30:12.385Z,7.10
2023-04-11T08:32:44.937Z,7.00
2023-04-11T08:35:14.480Z,6.90
2023-04-11T08:37:44.393Z,6.90
2023-04-11T08:40:13.001Z,6.80
2023-04-11T08:42:41.354Z,6.70
2023-04-11T08:45:10.398Z,6.70
2023-04-11T08:47:38.705Z,6.70
2023-04-11T08:50:07.586Z,6.80
2023-04-11T08:52:38.871Z,6.90
2023-04-11T08:55:07.050Z,6.90
2023-04-11T08:57:38.137Z,7.00
2023-04-11T09:00:13.770Z,7.00
2023-04-11T09:02:56.266Z,7.10
2023-04-11T09:05:31.306Z,7.20
2023-04-11T09:08:01.609Z,7.30
2023-04-11T09:10:29.752Z,7.50
2023-04-11T09:12:58.002Z,7.70
2023-04-11T09:15:27.299Z,7.80
2023-04-11T09:17:58.319Z,7.90
2023-04-11T09:20:30.422Z,8.10
2023-04-11T09:23:00.421Z,8.20
2023-04-11T09:25:29.016Z,8.30
2023-04-11T09:28:10.238Z,8.40
2023-04-11T09:30:38.562Z,8.50
2023-04-11T09:33:19.596Z,8.70
2023-04-11T09:35:52.907Z,8.90
2023-04-11T09:38:32.171Z,9.10
2023-04-11T09:41:00.846Z,9.20
2023-04-11T09:43:29.017Z,9.20
2023-04-11T09:46:09.959Z,9.10
2023-04-11T09:48:46.533Z,8.90
2023-04-11T09:51:31.862Z,8.50
2023-04-11T09:54:06.103Z,8.30
2023-04-11T09:56:35.689Z,8.00
2023-04-11T09:59:04.875Z,7.80
2023-04-11T10:01:33.271Z,7.70
2023-04-11T10:04:01.996Z,7.80
2023-04-11T10:06:33.919Z,7.90
2023-04-11T10:09:11.481Z,8.00
2023-04-11T10:11:42.297Z,8.10
2023-04-11T10:14:10.708Z,8.10
2023-04-11T10:16:58.926Z,8.20
2023-04-11T10:19:27.292Z,8.20
2023-04-11T10:21:55.345Z,8.40
2023-04-11T10:24:26.706Z,8.50
2023-04-11T10:26:57.677Z,8.60
2023-04-11T10:29:46.371Z,8.90
2023-04-11T10:32:19.311Z,9.10
2023-04-11T10:35:11.787Z,9.40
2023-04-11T10:37:39.861Z,9.70
2023-04-11T10:40:15.042Z,9.70
2023-04-11T10:42:43.884Z,9.70
2023-04-11T10:45:15.047Z,9.70
2023-04-11T10:47:43.290Z,9.60
2023-04-11T10:50:33.939Z,9.50
2023-04-11T10:53:03.143Z,9.60
2023-04-11T10:55:42.406Z,9.60
2023-04-11T10:58:11.503Z,9.70
2023-04-11T11:00:54.547Z,9.50
2023-04-11T11:03:23.922Z,9.20
2023-04-11T11:05:58.969Z,9.10
2023-04-11T11:08:30.893Z,8.90
2023-04-11T11:11:02.786Z,9.00
2023-04-11T11:13:39.644Z,9.00
2023-04-11T11:16:08.711Z,9.10
2023-04-11T11:18:37.006Z,9.40
2023-04-11T11:21:07.365Z,9.10
2023-04-11T11:23:37.533Z,8.80
2023-04-11T11:26:07.061Z,8.80
2023-04-11T11:28:46.396Z,8.80
2023-04-11T11:31:14.487Z,8.70
2023-04-11T11:33:43.009Z,8.60
2023-04-11T11:36:11.725Z,8.70
2023-04-11T11:38:39.778Z,8.80
2023-04-11T11:41:09.244Z,8.80
2023-04-11T11:43:40.135Z,8.80
2023-04-11T11:46:09.376Z,8.80
2023-04-11T11:48:37.526Z,8.80
2023-04-11T11:51:06.168Z,8.80
2023-04-11T11:53:34.680Z,8.50
2023-04-11T11:56:14.446Z,7.80
2023-04-11T11:58:45.934Z,7.30
2023-04-11T12:03:51.366Z,7.10
2023-04-11T12:06:19.828Z,7.00
2023-04-11T12:08:51.669Z,7.00
2023-04-11T12:11:21.184Z,7.00
2023-04-11T12:13:53.105Z,7.20
2023-04-11T12:16:22.588Z,7.30
2023-04-11T12:18:50.640Z,7.20
2023-04-11T12:21:18.893Z,7.20
2023-04-11T12:23:47.241Z,7.20
2023-04-11T12:26:15.640Z,7.20
2023-04-11T12:28:45.219Z,7.10
2023-04-11T12:31:13.904Z,7.10
2023-04-11T12:33:41.896Z,7.10
2023-04-11T12:36:10.570Z,7.10
2023-04-11T12:38:38.782Z,7.10
2023-04-11T12:41:30.237Z,7.10
2023-04-11T12:43:56.475Z,7.20
2023-04-11T12:46:24.662Z,7.30
2023-04-11T12:48:52.794Z,7.40
2023-04-11T12:51:20.960Z,7.60
2023-04-11T12:53:49.019Z,7.70
2023-04-11T12:56:17.177Z,8.10
2023-04-11T12:58:45.890Z,8.50
2023-04-11T13:01:16.320Z,8.90
2023-04-11T13:03:44.445Z,9.20
2023-04-11T13:06:12.652Z,9.40
2023-04-11T13:08:40.940Z,9.80
2023-04-11T13:11:09.233Z,9.90
2023-04-11T13:13:37.270Z,10.10
2023-04-11T13:16:06.525Z,10.30
2023-04-11T13:18:35.919Z,10.50
2023-04-11T13:21:04.008Z,10.70
2023-04-11T13:23:32.096Z,10.90
2023-04-11T13:26:00.794Z,10.70
2023-04-11T13:28:29.740Z,10.70
2023-04-11T13:30:59.147Z,10.60
2023-04-11T13:33:27.649Z,10.50
2023-04-11T13:35:57.154Z,10.50
2023-04-11T13:38:26.999Z,10.40
2023-04-11T13:40:55.641Z,10.50
2023-04-11T13:43:23.692Z,10.60
2023-04-11T13:45:51.805Z,10.70
2023-04-11T13:48:19.846Z,10.70
2023-04-11T13:50:47.842Z,11.00
2023-04-11T13:53:17.300Z,11.50
2023-04-11T13:55:48.356Z,11.50
2023-04-11T13:58:16.500Z,11.80
2023-04-11T14:00:45.682Z,12.80
2023-04-11T14:03:14.202Z,12.50
2023-04-11T14:05:42.318Z,11.90
2023-04-11T14:08:10.614Z,10.70
2023-04-11T14:10:40.332Z,9.90
2023-04-11T14:13:11.526Z,9.50
2023-04-11T14:15:39.972Z,9.20
2023-04-11T14:18:08.297Z,9.10
2023-04-11T14:20:38.564Z,9.40
2023-04-11T14:23:07.286Z,10.30
2023-04-11T14:25:35.604Z,11.30
2023-04-11T14:28:05.230Z,13.90
2023-04-11T14:30:33.300Z,16.20
2023-04-11T14:33:03.319Z,15.60
2023-04-11T14:35:31.600Z,13.60
2023-04-11T14:37:59.686Z,12.20
2023-04-11T14:40:27.677Z,11.40
2023-04-11T14:42:57.234Z,10.90
2023-04-11T14:45:26.607Z,10.50
2023-04-11T14:47:54.656Z,10.50
2023-04-11T14:50:22.700Z,10.40
2023-04-11T14:52:52.059Z,11.30
2023-04-11T14:55:20.390Z,11.30
2023-04-11T14:57:49.218Z,11.10
2023-04-11T15:00:20.872Z,11.00
2023-04-11T15:02:54.808Z,10.70
2023-04-11T15:05:23.695Z,10.50
2023-04-11T15:07:54.108Z,10.40
2023-04-11T15:10:22.914Z,10.40
2023-04-11T15:12:51.351Z,10.30
2023-04-11T15:15:19.377Z,10.30
2023-04-11T15:17:48.538Z,11.90
2023-04-11T15:20:19.684Z,12.60
2023-04-11T15:22:48.917Z,13.20
2023-04-11T15:25:17.226Z,15.00
2023-04-11T15:27:45.569Z,17.10
2023-04-11T15:30:13.811Z,18.70
2023-04-11T15:32:43.217Z,19.10
2023-04-11T15:35:13.627Z,17.50
2023-04-11T15:37:43.037Z,15.40
2023-04-11T15:40:12.294Z,14.40
2023-04-11T15:42:40.747Z,13.70
2023-04-11T15:45:09.036Z,13.10
2023-04-11T15:47:37.746Z,12.50
2023-04-11T15:50:09.064Z,12.20
2023-04-11T15:52:37.116Z,11.40
2023-04-11T15:55:07.284Z,11.50
2023-04-11T15:57:35.479Z,11.10
2023-04-11T16:00:08.702Z,10.40
2023-04-11T16:02:37.245Z,10.30
2023-04-11T16:05:05.890Z,10.20
2023-04-11T16:07:34.499Z,10.10
2023-04-11T16:10:02.650Z,11.30
2023-04-11T16:12:32.132Z,13.30
2023-04-11T16:15:00.280Z,14.20
2023-04-11T16:17:28.342Z,13.20
2023-04-11T16:19:56.813Z,12.40
2023-04-11T16:22:24.825Z,11.80
2023-04-11T16:24:52.921Z,11.30
2023-04-11T16:27:21.652Z,11.10
2023-04-11T16:29:51.979Z,10.90
2023-04-11T16:32:20.003Z,10.80
2023-04-11T16:34:47.963Z,10.60
2023-04-11T16:37:16.063Z,10.60
2023-04-11T16:39:44.181Z,10.70
2023-04-11T16:42:12.425Z,11.40
2023-04-11T16:44:40.427Z,12.40
2023-04-11T16:47:09.923Z,12.50
2023-04-11T16:49:39.347Z,12.40
2023-04-11T16:52:07.322Z,12.20
2023-04-11T16:54:35.575Z,11.90
2023-04-11T16:57:03.959Z,11.60
2023-04-11T16:59:32.133Z,11.70
2023-04-11T17:02:00.246Z,11.70
2023-04-11T17:04:30.073Z,11.70
2023-04-11T17:06:58.147Z,11.80
2023-04-11T17:09:26.338Z,11.70
2023-04-11T17:11:54.383Z,11.60
2023-04-11T17:14:22.458Z,11.60
2023-04-11T17:16:53.530Z,11.40
2023-04-11T17:19:22.261Z,11.30
2023-04-11T17:21:54.230Z,11.30
2023-04-11T17:24:22.456Z,11.30
2023-04-11T17:26:50.419Z,11.30
2023-04-11T17:29:20.180Z,11.30
2023-04-11T17:31:48.206Z,11.30
2023-04-11T17:34:16.241Z,11.40
2023-04-11T17:36:44.275Z,11.30
2023-04-11T17:39:17.645Z,11.20
2023-04-11T17:41:46.001Z,11.20
2023-04-11T17:44:16.380Z,11.10
2023-04-11T17:46:44.560Z,11.00
2023-04-11T17:49:12.705Z,10.80
2023-04-11T17:51:48.614Z,10.70
2023-04-11T17:54:18.572Z,10.60
2023-04-11T17:56:50.770Z,10.60
2023-04-11T17:59:18.905Z,10.50
2023-04-11T18:01:47.467Z,10.40
2023-04-11T18:04:18.522Z,10.30
2023-04-11T18:06:46.618Z,10.10
2023-04-11T18:09:15.675Z,10.00
2023-04-11T18:11:45.144Z,10.00
2023-04-11T18:14:13.212Z,9.90
2023-04-11T18:16:41.253Z,9.80
2023-04-11T18:19:09.481Z,9.80
2023-04-11T18:21:37.645Z,9.60
2023-04-11T18:24:05.840Z,9.60
2023-04-11T18:26:33.851Z,9.50
2023-04-11T18:29:06.091Z,9.40
2023-04-11T18:31:35.939Z,9.20
2023-04-11T18:34:06.276Z,9.10
2023-04-11T18:36:35.206Z,9.00
2023-04-11T18:39:04.788Z,8.90
2023-04-11T18:41:32.851Z,8.80
2023-04-11T18:44:02.129Z,8.70
2023-04-11T18:46:33.614Z,8.60
2023-04-11T18:49:04.814Z,8.50
2023-04-11T18:51:35.516Z,8.60
2023-04-11T18:54:03.736Z,8.50
2023-04-11T18:56:32.007Z,8.40
2023-04-11T18:59:05.496Z,8.40
2023-04-11T19:01:38.782Z,8.30
2023-04-11T19:04:07.986Z,8.20
2023-04-11T19:06:36.507Z,8.30
2023-04-11T19:09:04.691Z,8.30
2023-04-11T19:11:32.679Z,8.30
2023-04-11T19:14:01.394Z,8.40
2023-04-11T19:16:30.323Z,8.40
2023-04-11T19:18:59.784Z,8.30
2023-04-11T19:21:28.125Z,8.30
2023-04-11T19:23:57.631Z,8.20
2023-04-11T19:26:29.901Z,8.20
2023-04-11T19:28:58.982Z,8.10
2023-04-11T19:31:27.120Z,8.10
2023-04-11T19:33:56.061Z,8.00
2023-04-11T19:36:25.743Z,8.00
2023-04-11T19:38:55.688Z,7.90
2023-04-11T19:41:23.923Z,7.80
2023-04-11T19:43:52.118Z,7.70
2023-04-11T19:46:26.085Z,7.70
2023-04-11T19:48:55.116Z,7.60
2023-04-11T19:51:23.213Z,7.60
2023-04-11T19:53:55.144Z,7.60
2023-04-11T19:56:23.864Z,7.50
2023-04-11T19:58:51.888Z,7.50
2023-04-11T20:01:22.473Z,7.50
2023-04-11T20:03:53.600Z,7.40
2023-04-11T20:06:22.784Z,7.40
2023-04-11T20:08:53.156Z,7.30
2023-04-11T20:11:22.014Z,7.20
2023-04-11T20:13:50.045Z,7.20
2023-04-11T20:16:21.379Z,7.20
2023-04-11T20:18:49.423Z,7.10
2023-04-11T20:21:17.600Z,7.10
2023-04-11T20:23:45.653Z,7.00
2023-04-11T20:26:15.158Z,7.00
2023-04-11T20:28:45.128Z,7.00
2023-04-11T20:31:13.158Z,6.90
2023-04-11T20:33:41.313Z,6.90
2023-04-11T20:36:09.530Z,6.90
2023-04-11T20:38:37.576Z,6.80
2023-04-11T20:41:09.017Z,6.80
2023-04-11T20:43:41.964Z,6.80
2023-04-11T20:46:15.115Z,6.70
2023-04-11T20:48:43.460Z,6.70
2023-04-11T20:51:11.533Z,6.60
2023-04-11T20:53:39.618Z,6.60
2023-04-11T20:56:07.992Z,6.60
2023-04-11T20:58:36.000Z,6.50
2023-04-11T21:01:05.506Z,6.50
2023-04-11T21:03:37.303Z,6.40
2023-04-11T21:06:07.370Z,6.40
2023-04-11T21:08:37.273Z,6.40
2023-04-11T21:11:05.611Z,6.40
2023-04-11T21:13:36.718Z,6.30
2023-04-11T21:16:06.388Z,6.30
2023-04-11T21:18:34.380Z,6.20
2023-04-11T21:21:06.408Z,6.20
2023-04-11T21:23:34.459Z,6.20
2023-04-11T21:26:02.596Z,6.10
2023-04-11T21:28:32.776Z,6.10
2023-04-11T21:31:03.698Z,6.10
2023-04-11T21:33:33.165Z,6.10
2023-04-11T21:36:01.679Z,6.10
2023-04-11T21:38:30.329Z,6.00
2023-04-11T21:40:58.816Z,6.00
2023-04-11T21:43:28.031Z,6.00
2023-04-11T21:45:56.072Z,6.00
2023-04-11T21:48:24.058Z,5.90
2023-04-11T21:50:53.805Z,5.90
2023-04-11T21:53:21.861Z,5.90
2023-04-11T21:55:49.907Z,5.80
2023-04-11T21:58:28.531Z,5.80
2023-04-11T22:00:57.917Z,5.80
2023-04-11T22:03:28.665Z,5.80
2023-04-11T22:05:58.809Z,5.80
2023-04-11T22:08:29.216Z,5.70
2023-04-11T22:10:57.385Z,5.70
2023-04-11T22:13:25.544Z,5.70
2023-04-11T22:15:58.703Z,5.70
2023-04-11T22:18:27.337Z,5.70
2023-04-11T22:20:55.386Z,5.70
2023-04-11T22:23:25.332Z,5.70
2023-04-11T22:25:57.568Z,5.60
2023-04-11T22:28:26.132Z,5.60
2023-04-11T22:30:54.617Z,5.60
2023-04-11T22:33:22.599Z,5.60
2023-04-11T22:35:50.717Z,5.60
2023-04-11T22:38:19.006Z,5.60
2023-04-11T22:40:48.438Z,5.60
2023-04-11T22:43:16.737Z,5.60
2023-04-11T22:45:47.071Z,5.60
2023-04-11T22:48:15.313Z,5.60
2023-04-11T22:50:43.699Z,5.60
2023-04-11T22:53:14.070Z,5.60
2023-04-11T22:55:42.395Z,5.60
2023-04-11T22:58:11.937Z,5.60
2023-04-11T23:00:43.736Z,5.60
2023-04-11T23:03:12.364Z,5.60
2023-04-11T23:05:41.024Z,5.60
2023-04-11T23:08:09.826Z,5.60
2023-04-11T23:10:38.140Z,5.60
2023-04-11T23:13:06.171Z,5.60
2023-04-11T23:15:35.722Z,5.60
2023-04-11T23:18:03.840Z,5.60
2023-04-11T23:20:31.877Z,5.60
2023-04-11T23:22:59.917Z,5.60
2023-04-11T23:25:28.081Z,5.60
2023-04-11T23:27:56.122Z,5.60
2023-04-11T23:30:25.107Z,5.60
2023-04-11T23:32:54.513Z,5.60
2023-04-11T23:35:23.676Z,5.60
2023-04-11T23:37:52.208Z,5.60
2023-04-11T23:40:20.507Z,5.60
2023-04-11T23:42:50.394Z,5.60
2023-04-11T23:45:22.433Z,5.60
2023-04-11T23:47:52.574Z,5.60
2023-04-11T23:50:22.312Z,5.60
2023-04-11T23:52:50.350Z,5.60
2023-04-11T23:55:18.569Z,5.60
2023-04-11T23:57:46.779Z,5.60
